Time;durP1;ratioP1;P1;durP2;ratioP2;P2;SDS_P1;SDS_P2;PMS_P1;PMS_P2;Temp;Humidity;BMP_temperature;BMP_pressure;BME280_temperature;BME280_humidity;BME280_pressure;Samples;Min_cycle;Max_cycle;Signal;HPM_P1;HPM_P2
2024/03/23 00:00:44;;;;;;;7.43;2.97;;;;;;;17.31;58.70;100878.91;10364992;28;20060;-61
2024/03/23 00:05:46;;;;;;;6.97;3.53;;;;;;;17.31;58.75;100881.59;10365361;28;20057;-60
2024/03/23 00:10:47;;;;;;;6.97;2.58;;;;;;;17.31;57.31;100878.91;10364459;28;20092;-60
2024/03/23 00:15:49;;;;;;;4.82;2.45;;;;;;;17.32;57.58;100883.19;10364808;28;20069;-61
2024/03/23 00:20:54;;;;;;;5.25;2.90;;;;;;;17.29;58.50;100889.91;10364279;28;20108;-60
2024/03/23 00:25:55;;;;;;;7.95;3.03;;;;;;;17.35;61.39;100880.72;10371005;28;20141;-60
2024/03/23 00:30:56;;;;;;;6.57;3.25;;;;;;;17.47;59.66;100866.94;10372291;28;20500;-60
2024/03/23 00:35:58;;;;;;;6.15;3.10;;;;;;;17.49;59.54;100865.56;10373194;28;20116;-60
2024/03/23 00:40:59;;;;;;;5.57;2.70;;;;;;;17.48;59.28;100857.81;10371885;28;20462;-60
2024/03/23 00:46:01;;;;;;;6.18;3.08;;;;;;;17.46;59.17;100851.94;10373004;28;20112;-60
2024/03/23 00:51:02;;;;;;;6.53;3.17;;;;;;;17.44;58.40;100840.72;10372237;28;20461;-60
2024/03/23 00:56:03;;;;;;;5.88;2.20;;;;;;;17.41;59.86;100838.59;10372363;28;20037;-60
2024/03/23 01:01:04;;;;;;;5.10;2.78;;;;;;;17.41;59.91;100830.56;10371143;28;20025;-60
2024/03/23 01:06:04;;;;;;;5.17;2.37;;;;;;;17.38;59.63;100829.22;10371704;28;20457;-60
2024/03/23 01:11:04;;;;;;;6.43;2.70;;;;;;;17.36;58.76;100834.06;10370790;28;20272;-60
2024/03/23 01:16:05;;;;;;;5.93;2.55;;;;;;;17.34;58.82;100822.84;10371015;28;20293;-60
2024/03/23 01:21:05;;;;;;;5.80;3.05;;;;;;;17.32;58.81;100822.34;10370005;28;20029;-60
2024/03/23 01:26:05;;;;;;;6.73;2.20;;;;;;;17.31;59.67;100817.25;10371098;28;20429;-60
2024/03/23 01:31:06;;;;;;;4.73;2.37;;;;;;;17.30;59.35;100818.34;10368916;28;20281;-60
2024/03/23 01:36:06;;;;;;;4.67;2.50;;;;;;;17.31;59.72;100798.50;10369948;28;20284;-60
2024/03/23 01:41:06;;;;;;;3.73;2.20;;;;;;;17.29;59.51;100790.75;10369951;28;20648;-60
2024/03/23 01:46:07;;;;;;;4.70;2.60;;;;;;;17.31;59.64;100783.22;10368653;28;20284;-60
2024/03/23 01:51:07;;;;;;;5.22;2.75;;;;;;;17.30;59.13;100784.31;10369727;28;20614;-60
2024/03/23 01:56:08;;;;;;;3.78;2.30;;;;;;;17.28;58.91;100781.09;10368435;28;20026;-60
2024/03/23 02:01:08;;;;;;;8.10;3.47;;;;;;;17.24;58.45;100777.38;10367443;28;20481;-60
2024/03/23 02:06:08;;;;;;;6.00;2.70;;;;;;;17.24;59.72;100772.03;10369515;28;20508;-60
2024/03/23 02:11:09;;;;;;;6.40;2.95;;;;;;;17.27;57.76;100770.66;10368927;28;20280;-60
2024/03/23 02:16:09;;;;;;;5.68;2.97;;;;;;;17.28;59.56;100769.56;10367431;28;20021;-60
2024/03/23 02:21:09;;;;;;;3.83;2.10;;;;;;;17.31;58.57;100755.63;10368326;28;20033;-59
2024/03/23 02:26:10;;;;;;;5.13;2.90;;;;;;;17.31;57.87;100753.75;10368591;28;20284;-60
2024/03/23 02:31:10;;;;;;;4.73;2.60;;;;;;;17.30;59.04;100744.09;10368156;28;20729;-60
2024/03/23 02:36:10;;;;;;;5.75;3.08;;;;;;;17.27;59.14;100744.66;10368387;28;20284;-60
2024/03/23 02:41:11;;;;;;;6.60;2.47;;;;;;;17.28;57.97;100740.88;10367245;28;20026;-60
2024/03/23 02:46:11;;;;;;;7.60;3.07;;;;;;;17.29;58.11;100739.84;10366911;28;20342;-60
2024/03/23 02:51:11;;;;;;;3.90;2.80;;;;;;;17.26;59.16;100753.78;10367333;28;20326;-60
2024/03/23 02:56:15;;;;;;;4.33;2.60;;;;;;;17.26;58.39;100743.06;10368115;28;20342;-60
2024/03/23 03:01:16;;;;;;;7.00;3.08;;;;;;;17.28;57.52;100745.44;10365410;28;20306;-60
2024/03/23 03:06:23;;;;;;;5.30;3.00;;;;;;;17.23;58.41;100739.06;10365719;28;20030;-60
2024/03/23 03:11:23;;;;;;;6.20;3.10;;;;;;;17.22;57.91;100740.16;10365082;28;20400;-60
2024/03/23 03:16:24;;;;;;;6.47;2.38;;;;;;;17.28;57.67;100746.25;10367019;28;20501;-59
2024/03/23 03:21:24;;;;;;;5.33;2.40;;;;;;;17.31;57.93;100750.25;10364641;28;20022;-60
2024/03/23 03:26:24;;;;;;;5.90;2.87;;;;;;;17.34;58.38;100753.16;10366479;28;20276;-59
2024/03/23 03:31:25;;;;;;;5.95;2.30;;;;;;;17.31;58.63;100751.06;10364542;28;20261;-60
2024/03/23 03:36:25;;;;;;;5.33;2.27;;;;;;;17.26;57.61;100748.41;10366044;28;20141;-59
2024/03/23 03:41:26;;;;;;;5.93;2.23;;;;;;;17.27;57.92;100741.97;10365835;28;20776;-60
2024/03/23 03:46:26;;;;;;;4.68;2.08;;;;;;;17.28;58.19;100740.09;10363949;28;20277;-59
2024/03/23 03:51:26;;;;;;;5.50;2.73;;;;;;;17.27;57.79;100725.09;10365848;28;20026;-61
2024/03/23 03:56:27;;;;;;;6.10;2.67;;;;;;;17.31;57.52;100716.22;10364885;28;20687;-60
2024/03/23 04:01:27;;;;;;;3.88;2.05;;;;;;;17.32;57.53;100717.81;10363641;28;20689;-59
2024/03/23 04:06:28;;;;;;;6.07;2.50;;;;;;;17.30;57.84;100722.66;10364555;28;20053;-60
2024/03/23 04:11:28;;;;;;;4.53;2.33;;;;;;;17.28;57.55;100718.66;10364759;28;20284;-60
2024/03/23 04:16:35;;;;;;;5.63;2.30;;;;;;;17.25;57.17;100720.03;10364489;28;20025;-60
2024/03/23 04:21:36;;;;;;;7.05;2.88;;;;;;;17.25;56.91;100714.66;10364441;28;20075;-60
2024/03/23 04:26:41;;;;;;;6.57;2.30;;;;;;;17.30;56.37;100708.47;10364150;28;20030;-61
2024/03/23 04:31:41;;;;;;;3.95;1.75;;;;;;;17.28;57.73;100713.28;10363438;28;20022;-60
2024/03/23 04:36:42;;;;;;;4.63;1.97;;;;;;;17.28;57.04;100705.25;10364040;28;20029;-60
2024/03/23 04:41:42;;;;;;;6.17;2.33;;;;;;;17.30;56.71;100708.47;10365172;28;20332;-60
2024/03/23 04:46:42;;;;;;;4.23;2.00;;;;;;;17.31;56.44;100710.84;10363938;28;20363;-60
2024/03/23 04:51:46;;;;;;;4.10;2.00;;;;;;;17.34;55.94;100709.47;10364186;28;20301;-60
2024/03/23 04:56:46;;;;;;;5.35;2.13;;;;;;;17.34;56.72;100698.75;10363291;28;20307;-60
2024/03/23 05:01:47;;;;;;;4.72;1.90;;;;;;;17.34;56.71;100696.09;10361968;28;20026;-60
2024/03/23 05:06:47;;;;;;;3.50;1.52;;;;;;;17.30;55.85;100693.19;10362270;28;20029;-60
2024/03/23 05:11:48;;;;;;;5.17;1.80;;;;;;;17.29;56.45;100698.84;10365929;28;20062;-60
2024/03/23 05:16:48;;;;;;;4.47;1.53;;;;;;;17.31;57.24;100705.50;10370730;28;20360;-60
2024/03/23 05:21:48;;;;;;;4.80;1.63;;;;;;;17.31;57.12;100708.19;10370645;28;20296;-60
2024/03/23 05:26:48;;;;;;;4.97;1.97;;;;;;;17.31;56.39;100702.03;10367708;28;20661;-59
2024/03/23 05:31:49;;;;;;;3.73;1.63;;;;;;;17.34;56.58;100701.44;10372991;28;20284;-60
2024/03/23 05:36:51;;;;;;;4.32;2.17;;;;;;;17.32;55.51;100704.41;10370313;28;20276;-59
2024/03/23 05:41:51;;;;;;;4.45;2.08;;;;;;;17.32;56.18;100701.72;10374735;28;20034;-60
2024/03/23 05:46:51;;;;;;;4.07;2.25;;;;;;;17.32;56.69;100700.94;10371405;28;20103;-60
2024/03/23 05:51:52;;;;;;;3.57;1.77;;;;;;;17.30;56.22;100711.94;10371039;28;20025;-59
2024/03/23 05:56:54;;;;;;;2.27;1.10;;;;;;;17.28;55.96;100708.72;10371499;28;20636;-60
2024/03/23 06:01:55;;;;;;;4.43;1.30;;;;;;;17.31;56.13;100705.50;10369149;28;20284;-61
2024/03/23 06:06:55;;;;;;;6.77;2.17;;;;;;;17.25;56.75;100707.44;10370572;28;20029;-58
2024/03/23 06:11:55;;;;;;;6.80;1.83;;;;;;;17.33;57.45;100706.00;10370030;28;20300;-57
2024/03/23 06:16:56;;;;;;;7.82;1.80;;;;;;;17.35;58.37;100709.19;10370569;28;20276;-59
2024/03/23 06:21:56;;;;;;;10.13;2.35;;;;;;;17.35;59.57;100709.19;10370972;28;20021;-59
2024/03/23 06:26:56;;;;;;;14.57;2.40;;;;;;;17.36;57.84;100715.34;10370398;28;20066;-60
2024/03/23 06:31:57;;;;;;;10.63;1.83;;;;;;;17.27;57.92;100706.34;10369152;28;20284;-59
2024/03/23 06:36:57;;;;;;;6.60;2.07;;;;;;;17.27;57.67;100709.81;10393809;28;20037;-58
2024/03/23 06:41:57;;;;;;;9.00;1.80;;;;;;;17.24;59.00;100703.16;10366001;28;20279;-62
2024/03/23 06:46:58;;;;;;;7.57;1.57;;;;;;;17.21;58.19;100705.63;10344315;28;20741;-61
2024/03/23 06:51:58;;;;;;;10.27;1.65;;;;;;;17.22;60.00;100697.28;10376722;28;20289;-60
2024/03/23 06:56:58;;;;;;;5.43;2.00;;;;;;;17.09;58.84;100695.31;10374478;28;20029;-60
2024/03/23 07:01:59;;;;;;;6.93;2.07;;;;;;;17.09;58.37;100710.59;10367636;28;20333;-59
2024/03/23 07:06:59;;;;;;;7.27;2.10;;;;;;;17.00;59.09;100701.56;10381642;28;20280;-60
2024/03/23 07:11:59;;;;;;;10.00;2.20;;;;;;;16.91;58.78;100701.38;10368282;28;20288;-60
2024/03/23 07:17:00;;;;;;;8.43;1.73;;;;;;;16.95;58.97;100708.59;10368119;28;20281;-60
2024/03/23 07:22:00;;;;;;;11.18;2.28;;;;;;;16.94;59.35;100704.31;10366683;28;20845;-60
2024/03/23 07:27:00;;;;;;;9.97;1.97;;;;;;;16.93;60.03;100708.09;10367465;28;20347;-60
2024/03/23 07:32:02;;;;;;;11.55;1.98;;;;;;;16.93;58.33;100710.75;10368095;28;20331;-60
2024/03/23 07:37:02;;;;;;;15.30;2.63;;;;;;;16.89;61.02;100700.88;10367150;28;20043;-60
2024/03/23 07:42:03;;;;;;;13.80;2.42;;;;;;;16.93;60.43;100709.97;10367341;28;20108;-60
2024/03/23 07:47:03;;;;;;;19.85;3.22;;;;;;;17.01;58.15;100703.16;10367392;28;20485;-65
2024/03/23 07:52:04;;;;;;;13.60;2.35;;;;;;;16.90;58.55;100697.13;10366476;28;20068;-61
2024/03/23 07:57:04;;;;;;;10.18;1.83;;;;;;;16.95;58.41;100705.13;10367307;28;20036;-61
2024/03/23 08:02:04;;;;;;;15.98;3.05;;;;;;;16.91;57.81;100709.44;10367382;28;20500;-62
2024/03/23 08:07:05;;;;;;;8.00;2.30;;;;;;;16.88;58.03;100710.00;10365802;28;20052;-62
2024/03/23 08:12:05;;;;;;;15.60;3.03;;;;;;;16.90;58.36;100708.63;10366844;28;20289;-63
2024/03/23 08:17:06;;;;;;;14.13;3.22;;;;;;;16.88;58.27;100707.31;10366305;28;20080;-63
2024/03/23 08:22:06;;;;;;;11.52;3.95;;;;;;;16.89;57.71;100692.84;10367256;28;20109;-62
2024/03/23 08:27:06;;;;;;;19.98;3.45;;;;;;;16.92;58.95;100694.94;10366983;28;20088;-61
2024/03/23 08:32:07;;;;;;;17.33;4.13;;;;;;;16.92;57.48;100693.06;10365094;28;20022;-63
2024/03/23 08:37:07;;;;;;;16.33;3.15;;;;;;;16.99;57.12;100687.38;10365093;28;20026;-61
2024/03/23 08:42:08;;;;;;;17.57;3.93;;;;;;;17.07;57.54;100694.81;10365408;28;20366;-61
2024/03/23 08:47:08;;;;;;;24.77;5.07;;;;;;;17.12;58.32;100689.38;10369470;28;20279;-60
2024/03/23 08:52:08;;;;;;;26.63;4.40;;;;;;;17.13;58.38;100693.63;10357536;28;20026;-59
2024/03/23 08:57:09;;;;;;;25.33;5.00;;;;;;;17.10;57.72;100694.22;10372813;28;21060;-56
2024/03/23 09:02:09;;;;;;;29.90;4.75;;;;;;;17.14;58.21;100708.63;10370841;28;20300;-60
2024/03/23 09:07:09;;;;;;;29.37;4.47;;;;;;;17.16;58.13;100702.97;10373624;28;20055;-57
2024/03/23 09:12:10;;;;;;;26.83;4.40;;;;;;;17.11;57.19;100701.16;10372982;28;20292;-60
2024/03/23 09:17:10;;;;;;;36.77;5.83;;;;;;;17.04;58.25;100691.88;10371720;28;20283;-60
2024/03/23 09:22:10;;;;;;;34.25;6.05;;;;;;;16.94;59.95;100685.56;10343434;28;20363;-57
2024/03/23 09:27:11;;;;;;;44.53;7.57;;;;;;;16.93;59.63;100678.63;10371149;28;20040;-59
2024/03/23 09:32:11;;;;;;;33.05;5.93;;;;;;;16.88;59.12;100673.31;10372217;28;20794;-60
2024/03/23 09:37:12;;;;;;;46.73;8.40;;;;;;;16.91;59.58;100670.03;10372092;28;20084;-60
2024/03/23 09:42:12;;;;;;;34.03;5.20;;;;;;;16.94;59.61;100669.50;10371840;28;20810;-60
2024/03/23 09:47:12;;;;;;;25.37;5.60;;;;;;;16.98;59.81;100664.38;10369759;28;20292;-59
2024/03/23 09:52:13;;;;;;;44.00;7.10;;;;;;;16.99;59.40;100657.13;10369669;28;20277;-59
2024/03/23 09:57:13;;;;;;;26.80;5.60;;;;;;;16.88;58.89;100651.88;10369653;28;20300;-60
2024/03/23 10:02:17;;;;;;;15.70;4.93;;;;;;;16.87;59.59;100652.97;10371328;28;20284;-59
2024/03/23 10:07:24;;;;;;;21.58;4.50;;;;;;;16.83;59.59;100651.94;10370474;28;20273;-59
2024/03/23 10:12:25;;;;;;;21.90;5.00;;;;;;;16.87;59.19;100657.53;10371059;28;20107;-59
2024/03/23 10:17:25;;;;;;;21.25;4.15;;;;;;;16.91;58.54;100653.19;10369067;28;20034;-59
2024/03/23 10:22:25;;;;;;;16.27;5.17;;;;;;;16.83;57.76;100696.69;10370524;28;20038;-59
2024/03/23 10:27:25;;;;;;;18.03;3.60;;;;;;;16.75;59.31;100692.72;10369166;28;20752;-59
2024/03/23 10:32:27;;;;;;;12.03;3.33;;;;;;;16.75;59.18;100686.56;10368853;28;20276;-60
2024/03/23 10:37:27;;;;;;;10.73;2.97;;;;;;;16.79;59.45;100672.31;10352202;28;20367;-60
2024/03/23 10:42:27;;;;;;;9.68;2.95;;;;;;;16.82;58.12;100662.94;10369812;28;20105;-60
2024/03/23 10:47:28;;;;;;;13.55;3.25;;;;;;;16.87;57.78;100670.91;10368171;28;20029;-59
2024/03/23 10:52:28;;;;;;;22.73;5.13;;;;;;;16.83;58.22;100651.16;10370219;28;20021;-60
2024/03/23 10:57:41;;;;;;;14.90;4.40;;;;;;;16.81;57.69;100659.47;10368180;28;20034;-61
2024/03/23 11:02:42;;;;;;;15.48;3.20;;;;;;;16.87;57.17;100658.31;10368885;28;20033;-57
2024/03/23 11:07:49;;;;;;;14.70;5.30;;;;;;;17.17;58.79;100656.38;10367486;28;20033;-58
2024/03/23 11:12:50;;;;;;;19.20;4.07;;;;;;;17.15;58.52;100650.47;10369392;28;20496;-58
2024/03/23 11:18:11;;;;;;;11.17;3.33;;;;;;;17.23;58.00;100653.34;10367531;28;20022;-58
2024/03/23 11:23:28;;;;;;;19.95;4.18;;;;;;;17.17;59.16;100646.47;10369539;28;20056;-58
2024/03/23 11:28:28;;;;;;;24.45;4.78;;;;;;;17.10;58.64;100651.34;10368741;28;20033;-61
2024/03/23 11:33:29;;;;;;;24.40;4.37;;;;;;;17.04;59.27;100660.53;10368906;28;20045;-62
2024/03/23 11:38:29;;;;;;;16.83;4.68;;;;;;;17.14;58.82;100644.34;10339567;28;20300;-62
2024/03/23 11:43:29;;;;;;;18.03;4.03;;;;;;;17.20;59.87;100658.47;10367451;28;20022;-62
2024/03/23 11:48:29;;;;;;;21.77;3.87;;;;;;;17.21;58.52;100644.00;10367076;28;20284;-62
2024/03/23 11:53:31;;;;;;;24.97;4.60;;;;;;;17.13;58.28;100649.97;10368389;28;20277;-61
2024/03/23 11:58:32;;;;;;;16.38;4.47;;;;;;;17.10;59.53;100653.25;10366533;28;20293;-62
2024/03/23 12:03:34;;;;;;;23.45;3.88;;;;;;;17.10;59.04;100659.41;10366004;28;20490;-60
2024/03/23 12:08:35;;;;;;;18.02;4.05;;;;;;;17.04;60.54;100657.84;10349177;28;20018;-61
2024/03/23 12:13:35;;;;;;;26.20;3.78;;;;;;;17.01;59.25;100642.34;10365819;28;20155;-60
2024/03/23 12:18:36;;;;;;;16.48;2.80;;;;;;;17.27;58.79;100634.78;10364553;28;20026;-59
2024/03/23 12:23:39;;;;;;;20.75;4.70;;;;;;;17.14;58.46;100624.78;10380361;28;20516;-61
2024/03/23 12:28:39;;;;;;;27.67;4.63;;;;;;;17.06;58.68;100612.03;10392874;28;20064;-59
2024/03/23 12:33:40;;;;;;;40.53;4.80;;;;;;;17.16;59.51;100614.56;10360757;28;20114;-59
2024/03/23 12:38:40;;;;;;;33.88;4.07;;;;;;;17.12;59.23;100600.16;10378564;28;20383;-59
2024/03/23 12:43:40;;;;;;;20.60;3.80;;;;;;;16.99;59.60;100609.72;10380002;28;20025;-59
2024/03/23 12:48:42;;;;;;;18.97;3.63;;;;;;;16.92;59.10;100601.22;10379313;28;20022;-58
2024/03/23 12:53:42;;;;;;;15.15;4.18;;;;;;;17.01;58.02;100606.75;10379842;28;20272;-58
2024/03/23 12:58:42;;;;;;;14.07;4.07;;;;;;;17.10;59.19;100605.81;10379226;28;20393;-59
2024/03/23 13:03:44;;;;;;;17.27;3.07;;;;;;;17.15;58.94;100596.91;10378194;28;20291;-59
2024/03/23 13:08:46;;;;;;;8.77;2.38;;;;;;;17.13;58.16;100599.06;10379569;28;20275;-59
2024/03/23 13:13:46;;;;;;;14.82;2.33;;;;;;;17.01;57.02;100601.38;10361017;28;20042;-59
2024/03/23 13:18:46;;;;;;;15.65;3.05;;;;;;;16.91;57.28;100605.78;10379497;28;20045;-58
2024/03/23 13:23:48;;;;;;;6.85;3.08;;;;;;;16.86;57.23;100600.50;10379128;28;20029;-59
2024/03/23 13:28:48;;;;;;;6.13;2.05;;;;;;;16.78;57.65;100598.44;10378923;28;20123;-58
2024/03/23 13:33:48;;;;;;;10.63;2.23;;;;;;;16.76;57.13;100599.81;10354917;28;20104;-58
2024/03/23 13:38:49;;;;;;;6.60;2.40;;;;;;;16.72;57.57;100591.56;10372853;28;20288;-59
2024/03/23 13:43:49;;;;;;;6.43;2.10;;;;;;;16.71;58.40;100594.53;10372055;28;20284;-58
2024/03/23 13:48:49;;;;;;;9.07;3.10;;;;;;;16.67;57.23;100589.72;10370836;28;20279;-58
2024/03/23 13:53:50;;;;;;;6.67;1.63;;;;;;;16.66;57.61;100587.31;10371131;28;20652;-58
2024/03/23 13:58:50;;;;;;;9.20;2.47;;;;;;;16.61;56.74;100609.59;10371718;28;20307;-58
2024/03/23 14:03:50;;;;;;;13.45;2.60;;;;;;;16.60;57.73;100621.38;10370974;28;20280;-57
2024/03/23 14:08:51;;;;;;;7.90;2.30;;;;;;;16.77;57.21;100607.56;10353644;28;20017;-57
2024/03/23 14:13:51;;;;;;;13.87;2.57;;;;;;;16.69;57.35;100591.31;10370559;28;20603;-58
2024/03/23 14:18:53;;;;;;;7.80;2.15;;;;;;;16.63;57.38;100588.69;10370825;28;20292;-58
2024/03/23 14:23:56;;;;;;;5.33;1.77;;;;;;;16.61;57.66;100601.56;10370125;28;20465;-58
2024/03/23 14:28:56;;;;;;;6.40;2.00;;;;;;;16.57;56.88;100624.59;10370355;28;20376;-56
2024/03/23 14:33:57;;;;;;;4.93;1.80;;;;;;;16.57;56.52;100618.44;10369533;28;20021;-57
2024/03/23 14:38:57;;;;;;;15.97;2.70;;;;;;;16.63;58.47;100587.88;10368611;28;20343;-55
2024/03/23 14:43:57;;;;;;;13.20;2.57;;;;;;;16.75;58.26;100585.63;10367055;28;20284;-56
2024/03/23 14:48:58;;;;;;;7.97;1.80;;;;;;;16.86;58.06;100580.94;10368509;28;20273;-57
2024/03/23 14:53:58;;;;;;;13.77;2.47;;;;;;;16.91;57.75;100568.28;10370017;28;20038;-57
2024/03/23 14:58:58;;;;;;;11.88;3.08;;;;;;;16.92;58.32;100574.44;10369329;28;20121;-58
2024/03/23 15:03:59;;;;;;;14.27;2.65;;;;;;;16.91;57.76;100562.13;10367287;28;20026;-58
2024/03/23 15:08:59;;;;;;;10.73;2.53;;;;;;;16.98;57.47;100557.22;10368418;28;20029;-56
2024/03/23 15:14:00;;;;;;;15.93;3.07;;;;;;;17.08;56.81;100545.59;10368208;28;20273;-57
2024/03/23 15:19:00;;;;;;;15.20;2.60;;;;;;;17.19;57.34;100544.34;10366626;28;20299;-58
2024/03/23 15:24:01;;;;;;;16.30;3.53;;;;;;;17.29;57.94;100546.88;10367293;28;20127;-56
2024/03/23 15:34:01;;;;;;;13.50;2.67;;;;;;;17.76;57.66;100539.75;10365724;28;20124;-54
2024/03/23 15:39:01;;;;;;;14.50;3.65;;;;;;;17.45;59.14;100542.88;10367298;28;20296;-57
2024/03/23 15:44:02;;;;;;;18.97;3.67;;;;;;;17.38;58.82;100563.88;10367107;28;20450;-57
2024/03/23 15:49:02;;;;;;;17.00;3.63;;;;;;;17.33;58.60;100547.88;10366911;28;20260;-58
2024/03/23 15:54:03;;;;;;;19.37;3.70;;;;;;;17.30;58.67;100547.69;10366463;28;21297;-58
2024/03/23 15:59:06;;;;;;;16.65;3.30;;;;;;;17.31;59.18;100547.38;10367063;28;20302;-57
2024/03/23 16:04:06;;;;;;;30.23;4.15;;;;;;;17.24;59.15;100536.22;10364871;28;20021;-58
2024/03/23 16:09:09;;;;;;;18.50;4.03;;;;;;;17.22;58.56;100541.09;10365824;28;20466;-55
2024/03/23 16:14:09;;;;;;;12.23;2.92;;;;;;;17.23;59.56;100542.69;10365730;28;20999;-60
2024/03/23 16:19:10;;;;;;;16.58;2.60;;;;;;;17.23;58.47;100530.06;10366090;28;20018;-58
2024/03/23 16:24:11;;;;;;;25.30;4.18;;;;;;;17.21;58.75;100528.78;10365970;28;20030;-59
2024/03/23 16:29:11;;;;;;;10.00;2.97;;;;;;;17.32;58.48;100524.88;10365978;28;20021;-58
2024/03/23 16:34:11;;;;;;;9.67;2.57;;;;;;;17.36;57.58;100528.53;10364392;28;20284;-58
2024/03/23 16:39:12;;;;;;;9.90;2.67;;;;;;;17.30;58.55;100529.72;10365603;28;20328;-59
2024/03/23 16:44:12;;;;;;;11.45;2.40;;;;;;;17.34;57.35;100519.22;10365091;28;20276;-58
2024/03/23 16:49:12;;;;;;;16.40;3.00;;;;;;;17.39;58.70;100527.16;10365389;28;20029;-58
2024/03/23 16:54:12;;;;;;;12.53;2.90;;;;;;;17.29;58.36;100521.97;10364237;28;20307;-59
2024/03/23 16:59:14;;;;;;;32.00;6.63;;;;;;;17.18;57.84;100527.47;10364347;28;20305;-58
2024/03/23 17:04:14;;;;;;;22.90;6.32;;;;;;;17.13;58.57;100527.53;10365586;28;20335;-58
2024/03/23 17:09:16;;;;;;;22.48;5.18;;;;;;;17.09;58.07;100531.91;10373682;28;20076;-58
2024/03/23 17:14:16;;;;;;;20.23;5.05;;;;;;;17.10;56.80;100530.00;10373181;28;20375;-58
2024/03/23 17:19:16;;;;;;;11.60;3.15;;;;;;;17.01;56.63;100537.09;10373730;28;20058;-59
2024/03/23 17:24:17;;;;;;;19.53;3.50;;;;;;;17.24;60.21;100531.66;10372398;28;20040;-60
2024/03/23 17:29:17;;;;;;;17.33;4.00;;;;;;;17.39;59.51;100554.75;10372983;28;20366;-58
2024/03/23 17:34:17;;;;;;;17.23;3.20;;;;;;;17.44;59.61;100537.81;10372916;28;20287;-58
2024/03/23 17:39:17;;;;;;;19.50;3.70;;;;;;;17.42;59.88;100524.72;10372817;28;20291;-60
2024/03/23 17:44:18;;;;;;;16.93;3.43;;;;;;;17.40;60.47;100526.06;10372136;28;20280;-58
2024/03/23 17:49:19;;;;;;;17.52;3.78;;;;;;;17.39;59.83;100527.94;10372282;28;20284;-57
2024/03/23 17:54:19;;;;;;;21.75;3.85;;;;;;;17.40;59.70;100513.47;10371174;28;20029;-58
2024/03/23 17:59:23;;;;;;;14.02;2.97;;;;;;;17.32;58.62;100513.34;10371324;28;20030;-60
2024/03/23 18:04:23;;;;;;;19.10;4.53;;;;;;;17.25;59.49;100516.38;10371228;28;20038;-60
2024/03/23 18:09:23;;;;;;;10.80;2.83;;;;;;;17.19;58.75;100522.91;10370054;28;20025;-60
2024/03/23 18:14:24;;;;;;;25.70;4.57;;;;;;;17.04;60.06;100512.41;10369973;28;20343;-59
2024/03/23 18:19:24;;;;;;;11.23;3.95;;;;;;;16.97;60.58;100512.78;10370020;28;20718;-59
2024/03/23 18:24:25;;;;;;;12.40;2.95;;;;;;;16.94;60.26;100518.72;10370215;28;20450;-60
2024/03/23 18:29:25;;;;;;;13.52;2.63;;;;;;;16.88;59.06;100520.66;10370019;28;20025;-58
2024/03/23 18:34:25;;;;;;;13.70;2.90;;;;;;;16.86;60.93;100536.22;10368842;28;20030;-58
2024/03/23 18:39:27;;;;;;;9.20;3.43;;;;;;;16.86;60.26;100517.47;10367905;28;20293;-59
2024/03/23 18:44:28;;;;;;;12.43;3.05;;;;;;;16.84;60.00;100510.81;10365556;28;20281;-59
2024/03/23 18:49:28;;;;;;;9.90;2.77;;;;;;;16.89;59.89;100508.06;10357199;28;20026;-59
2024/03/23 18:54:28;;;;;;;11.03;2.90;;;;;;;16.90;58.77;100501.63;10377826;28;20752;-58
2024/03/23 18:59:29;;;;;;;8.93;3.50;;;;;;;16.92;58.72;100494.09;10366907;28;20296;-58
2024/03/23 19:04:29;;;;;;;8.43;1.73;;;;;;;16.96;57.69;100495.13;10366322;28;20026;-60
2024/03/23 19:09:30;;;;;;;6.03;2.70;;;;;;;16.94;58.33;100498.09;10363962;28;20276;-60
2024/03/23 19:14:31;;;;;;;6.95;2.42;;;;;;;17.01;58.04;100489.69;10356788;28;20293;-61
2024/03/23 19:19:31;;;;;;;7.77;2.73;;;;;;;17.02;58.51;100495.81;10370070;28;20489;-60
2024/03/23 19:24:32;;;;;;;11.50;2.45;;;;;;;17.05;58.55;100495.25;10362042;28;20287;-60
2024/03/23 19:29:32;;;;;;;9.87;2.10;;;;;;;17.00;58.16;100490.75;10354279;28;20033;-60
2024/03/23 19:34:32;;;;;;;7.07;2.17;;;;;;;16.99;57.76;100491.06;10364299;28;20280;-60
2024/03/23 19:39:33;;;;;;;8.23;2.15;;;;;;;17.02;57.53;100488.59;10360268;28;20715;-61
2024/03/23 19:44:36;;;;;;;10.93;2.22;;;;;;;17.05;58.34;100480.00;10373645;28;20617;-60
2024/03/23 19:49:36;;;;;;;7.68;1.95;;;;;;;17.03;58.43;100484.81;10367245;28;20115;-61
2024/03/23 19:54:37;;;;;;;14.82;2.22;;;;;;;17.00;59.31;100479.25;10362080;28;20478;-61
2024/03/23 19:59:37;;;;;;;8.17;1.60;;;;;;;16.95;57.60;100469.44;10365189;28;20450;-61
2024/03/23 20:04:37;;;;;;;17.33;2.60;;;;;;;17.04;58.71;100459.63;10364958;28;20280;-61
2024/03/23 20:09:38;;;;;;;9.03;1.97;;;;;;;17.04;57.76;100466.88;10368672;28;20285;-60
2024/03/23 20:14:39;;;;;;;5.67;1.97;;;;;;;17.01;58.84;100459.41;10366430;28;20347;-62
2024/03/23 20:19:39;;;;;;;5.55;1.73;;;;;;;16.98;58.92;100457.31;10367479;28;20300;-61
2024/03/23 20:24:39;;;;;;;7.57;1.60;;;;;;;17.06;57.74;100457.47;10367357;28;20021;-61
2024/03/23 20:29:40;;;;;;;6.03;1.85;;;;;;;17.06;57.71;100454.78;10367801;28;20288;-61
2024/03/23 20:34:40;;;;;;;5.83;1.77;;;;;;;17.04;57.32;100454.25;10367311;28;20033;-61
2024/03/23 20:39:40;;;;;;;3.70;1.37;;;;;;;16.98;59.03;100460.00;10374421;28;20307;-61
2024/03/23 20:44:41;;;;;;;5.00;1.63;;;;;;;16.95;58.42;100439.97;10387757;28;20287;-61
2024/03/23 20:49:41;;;;;;;8.23;2.65;;;;;;;16.97;58.41;100450.38;10382842;28;20265;-58
2024/03/23 20:54:42;;;;;;;7.65;1.52;;;;;;;16.99;58.89;100457.03;10389279;28;20033;-61
2024/03/23 20:59:43;;;;;;;4.55;1.73;;;;;;;16.94;58.87;100444.53;10384656;28;20034;-61
2024/03/23 21:04:44;;;;;;;9.98;1.50;;;;;;;16.91;59.42;100437.06;10378612;28;20032;-59
2024/03/23 21:09:44;;;;;;;4.20;1.05;;;;;;;16.95;57.28;100431.94;10385496;28;20029;-61
2024/03/23 21:14:44;;;;;;;4.80;1.87;;;;;;;17.09;57.83;100429.31;10389730;28;20056;-60
2024/03/23 21:19:47;;;;;;;4.25;1.30;;;;;;;17.08;57.19;100423.16;10373402;28;20303;-60
2024/03/23 21:24:48;;;;;;;8.57;2.15;;;;;;;17.10;57.59;100418.28;10373351;28;20022;-61
2024/03/23 21:29:48;;;;;;;4.07;1.03;;;;;;;17.15;57.23;100418.19;10373786;28;20018;-60
2024/03/23 21:34:48;;;;;;;7.60;2.50;;;;;;;17.15;57.72;100410.16;10385894;28;20268;-60
2024/03/23 21:39:49;;;;;;;8.07;1.70;;;;;;;17.10;57.95;100410.25;10373521;28;20299;-61
2024/03/23 21:44:49;;;;;;;7.77;3.03;;;;;;;17.07;56.99;100412.72;10373887;28;20275;-61
2024/03/23 21:49:49;;;;;;;8.93;2.97;;;;;;;17.05;57.55;100402.31;10373029;28;20280;-60
2024/03/23 21:54:50;;;;;;;3.83;1.17;;;;;;;17.02;57.42;100402.09;10372602;28;20281;-60
2024/03/23 21:59:50;;;;;;;3.35;1.15;;;;;;;17.04;57.83;100389.97;10370294;28;20296;-61
2024/03/23 22:04:50;;;;;;;4.00;1.77;;;;;;;17.08;56.09;100385.66;10371295;28;20021;-60
2024/03/23 22:09:51;;;;;;;4.77;1.30;;;;;;;17.12;55.67;100377.81;10372122;28;20277;-60
2024/03/23 22:14:51;;;;;;;2.47;1.20;;;;;;;17.12;56.90;100375.94;10372016;28;20284;-60
2024/03/23 22:19:52;;;;;;;4.75;1.60;;;;;;;17.17;55.40;100357.09;10370807;28;20303;-61
2024/03/23 22:24:52;;;;;;;2.63;1.08;;;;;;;17.20;56.46;100343.13;10364327;28;20029;-61
2024/03/23 22:29:52;;;;;;;5.27;1.60;;;;;;;17.17;55.90;100332.19;10370798;28;20377;-61
2024/03/23 22:34:53;;;;;;;3.87;1.17;;;;;;;17.21;56.54;100327.84;10370630;28;20273;-60
2024/03/23 22:39:53;;;;;;;4.20;1.33;;;;;;;17.20;55.29;100324.34;10371203;28;21177;-60
2024/03/23 22:44:53;;;;;;;3.97;1.17;;;;;;;17.19;56.10;100314.72;10371071;28;20287;-61
2024/03/23 22:49:54;;;;;;;4.13;1.10;;;;;;;17.23;56.26;100306.88;10361902;28;20806;-61
2024/03/23 22:54:54;;;;;;;3.93;0.80;;;;;;;17.23;54.94;100293.50;10370700;28;20427;-61
2024/03/23 22:59:54;;;;;;;2.47;0.95;;;;;;;17.24;56.18;100292.41;10370528;28;20423;-61